sensor_id;sensor_type;location;lat;lon;timestamp;pressure;altitude;pressure_sealevel;temperature;humidity
29379;BME280;16362;47.202;15.258;2024-02-21T00:01:22;97054.56;;;1.12;100.00
29379;BME280;16362;47.202;15.258;2024-02-21T00:03:49;97055.28;;;1.14;100.00
29379;BME280;16362;47.202;15.258;2024-02-21T00:06:16;97056.13;;;1.15;100.00
29379;BME280;16362;47.202;15.258;2024-02-21T00:08:43;97053.41;;;1.16;100.00
29379;BME280;16362;47.202;15.258;2024-02-21T00:11:10;97047.75;;;1.23;100.00
29379;BME280;16362;47.202;15.258;2024-02-21T00:13:37;97046.06;;;1.22;100.00
29379;BME280;16362;47.202;15.258;2024-02-21T00:16:04;97046.06;;;1.22;100.00
29379;BME280;16362;47.202;15.258;2024-02-21T00:18:30;97043.53;;;1.20;100.00
29379;BME280;16362;47.202;15.258;2024-02-21T00:20:57;97048.50;;;1.25;100.00
29379;BME280;16362;47.202;15.258;2024-02-21T00:23:24;97046.97;;;1.35;100.00
29379;BME280;16362;47.202;15.258;2024-02-21T00:25:52;97043.41;;;1.36;100.00
29379;BME280;16362;47.202;15.258;2024-02-21T00:28:19;97032.53;;;1.28;100.00
29379;BME280;16362;47.202;15.258;2024-02-21T00:30:46;97035.16;;;1.28;100.00
29379;BME280;16362;47.202;15.258;2024-02-21T00:33:14;97038.53;;;1.30;100.00
29379;BME280;16362;47.202;15.258;2024-02-21T00:35:41;97027.81;;;1.33;100.00
29379;BME280;16362;47.202;15.258;2024-02-21T00:38:08;97037.47;;;1.32;100.00
29379;BME280;16362;47.202;15.258;2024-02-21T00:40:38;97030.34;;;1.34;100.00
29379;BME280;16362;47.202;15.258;2024-02-21T00:43:07;97030.94;;;1.25;100.00
29379;BME280;16362;47.202;15.258;2024-02-21T00:45:34;97027.66;;;1.22;100.00
29379;BME280;16362;47.202;15.258;2024-02-21T00:48:01;97020.31;;;1.27;100.00
29379;BME280;16362;47.202;15.258;2024-02-21T00:50:28;97036.31;;;1.24;100.00
29379;BME280;16362;47.202;15.258;2024-02-21T00:53:01;97030.09;;;1.25;100.00
29379;BME280;16362;47.202;15.258;2024-02-21T00:55:28;97024.34;;;1.32;100.00
29379;BME280;16362;47.202;15.258;2024-02-21T00:57:55;97019.72;;;1.36;100.00
29379;BME280;16362;47.202;15.258;2024-02-21T01:00:22;97015.63;;;1.32;100.00
29379;BME280;16362;47.202;15.258;2024-02-21T01:02:49;97021.69;;;1.32;100.00
29379;BME280;16362;47.202;15.258;2024-02-21T01:05:19;97021.88;;;1.44;100.00
29379;BME280;16362;47.202;15.258;2024-02-21T01:07:47;97030.59;;;1.44;100.00
29379;BME280;16362;47.202;15.258;2024-02-21T01:10:14;97028.06;;;1.43;100.00
29379;BME280;16362;47.202;15.258;2024-02-21T01:12:43;97024.31;;;1.47;100.00
29379;BME280;16362;47.202;15.258;2024-02-21T01:15:10;97014.59;;;1.47;100.00
29379;BME280;16362;47.202;15.258;2024-02-21T01:17:38;97025.13;;;1.47;100.00
29379;BME280;16362;47.202;15.258;2024-02-21T01:20:08;97019.78;;;1.49;100.00
29379;BME280;16362;47.202;15.258;2024-02-21T01:22:37;97024.97;;;1.50;100.00
29379;BME280;16362;47.202;15.258;2024-02-21T01:25:04;97024.97;;;1.50;100.00
29379;BME280;16362;47.202;15.258;2024-02-21T01:27:31;97026.63;;;1.51;100.00
29379;BME280;16362;47.202;15.258;2024-02-21T01:29:58;97022.31;;;1.50;100.00
29379;BME280;16362;47.202;15.258;2024-02-21T01:32:24;97023.91;;;1.53;100.00
29379;BME280;16362;47.202;15.258;2024-02-21T01:34:51;97014.44;;;1.50;100.00
29379;BME280;16362;47.202;15.258;2024-02-21T01:37:18;97025.78;;;1.51;100.00
29379;BME280;16362;47.202;15.258;2024-02-21T01:39:45;97013.06;;;1.58;100.00
29379;BME280;16362;47.202;15.258;2024-02-21T01:42:12;97016.03;;;1.66;100.00
29379;BME280;16362;47.202;15.258;2024-02-21T01:44:39;97010.88;;;1.64;100.00
29379;BME280;16362;47.202;15.258;2024-02-21T01:47:05;96998.06;;;1.60;100.00
29379;BME280;16362;47.202;15.258;2024-02-21T01:49:32;97004.16;;;1.60;100.00
29379;BME280;16362;47.202;15.258;2024-02-21T01:52:00;97011.72;;;1.65;100.00
29379;BME280;16362;47.202;15.258;2024-02-21T01:54:27;96991.00;;;1.73;100.00
29379;BME280;16362;47.202;15.258;2024-02-21T01:56:55;96988.03;;;1.65;100.00
29379;BME280;16362;47.202;15.258;2024-02-21T01:59:22;96991.81;;;1.61;100.00
29379;BME280;16362;47.202;15.258;2024-02-21T02:01:51;96996.34;;;1.59;100.00
29379;BME280;16362;47.202;15.258;2024-02-21T02:04:20;96988.84;;;1.52;100.00
29379;BME280;16362;47.202;15.258;2024-02-21T02:06:48;96993.94;;;1.56;100.00
29379;BME280;16362;47.202;15.258;2024-02-21T02:09:15;96990.16;;;1.60;100.00
29379;BME280;16362;47.202;15.258;2024-02-21T02:11:43;96990.50;;;1.68;100.00
29379;BME280;16362;47.202;15.258;2024-02-21T02:14:10;96983.09;;;1.73;100.00
29379;BME280;16362;47.202;15.258;2024-02-21T02:16:37;96983.75;;;1.77;100.00
29379;BME280;16362;47.202;15.258;2024-02-21T02:19:04;96988.91;;;1.78;100.00
29379;BME280;16362;47.202;15.258;2024-02-21T02:21:39;96977.25;;;1.82;100.00
29379;BME280;16362;47.202;15.258;2024-02-21T02:24:06;96980.91;;;1.80;100.00
29379;BME280;16362;47.202;15.258;2024-02-21T02:26:36;96975.97;;;1.75;100.00
29379;BME280;16362;47.202;15.258;2024-02-21T02:29:03;96970.50;;;1.78;100.00
29379;BME280;16362;47.202;15.258;2024-02-21T02:31:30;96971.53;;;1.76;100.00
29379;BME280;16362;47.202;15.258;2024-02-21T02:33:59;96977.94;;;1.72;100.00
29379;BME280;16362;47.202;15.258;2024-02-21T02:36:26;96967.47;;;1.84;100.00
29379;BME280;16362;47.202;15.258;2024-02-21T02:38:54;96966.22;;;2.03;100.00
29379;BME280;16362;47.202;15.258;2024-02-21T02:41:20;96962.63;;;1.91;100.00
29379;BME280;16362;47.202;15.258;2024-02-21T02:43:47;96965.56;;;1.87;100.00
29379;BME280;16362;47.202;15.258;2024-02-21T02:46:14;96956.19;;;1.82;100.00
29379;BME280;16362;47.202;15.258;2024-02-21T02:48:41;96963.34;;;1.80;100.00
29379;BME280;16362;47.202;15.258;2024-02-21T02:51:08;96956.63;;;1.76;100.00
29379;BME280;16362;47.202;15.258;2024-02-21T02:53:35;96954.69;;;1.78;100.00
29379;BME280;16362;47.202;15.258;2024-02-21T02:56:02;96956.19;;;1.82;100.00
29379;BME280;16362;47.202;15.258;2024-02-21T02:58:29;96947.13;;;1.87;100.00
29379;BME280;16362;47.202;15.258;2024-02-21T03:00:57;96933.03;;;1.88;100.00
29379;BME280;16362;47.202;15.258;2024-02-21T03:03:24;96934.28;;;1.82;100.00
29379;BME280;16362;47.202;15.258;2024-02-21T03:05:52;96941.53;;;1.78;100.00
29379;BME280;16362;47.202;15.258;2024-02-21T03:08:20;96938.38;;;1.73;100.00
29379;BME280;16362;47.202;15.258;2024-02-21T03:10:47;96942.91;;;1.84;100.00
29379;BME280;16362;47.202;15.258;2024-02-21T03:13:14;96938.50;;;1.84;100.00
29379;BME280;16362;47.202;15.258;2024-02-21T03:15:40;96942.63;;;1.89;100.00
29379;BME280;16362;47.202;15.258;2024-02-21T03:18:07;96932.38;;;1.84;100.00
29379;BME280;16362;47.202;15.258;2024-02-21T03:20:34;96935.13;;;1.82;100.00
29379;BME280;16362;47.202;15.258;2024-02-21T03:23:01;96934.41;;;1.80;100.00
29379;BME280;16362;47.202;15.258;2024-02-21T03:25:28;96943.34;;;1.78;100.00
29379;BME280;16362;47.202;15.258;2024-02-21T03:27:54;96938.91;;;1.78;100.00
29379;BME280;16362;47.202;15.258;2024-02-21T03:30:21;96946.09;;;1.76;100.00
29379;BME280;16362;47.202;15.258;2024-02-21T03:32:48;96934.91;;;1.73;100.00
29379;BME280;16362;47.202;15.258;2024-02-21T03:35:15;96939.13;;;1.75;100.00
29379;BME280;16362;47.202;15.258;2024-02-21T03:37:42;96939.03;;;1.77;100.00
29379;BME280;16362;47.202;15.258;2024-02-21T03:40:09;96934.38;;;1.67;100.00
29379;BME280;16362;47.202;15.258;2024-02-21T03:42:36;96933.03;;;1.75;100.00
29379;BME280;16362;47.202;15.258;2024-02-21T03:45:07;96939.34;;;1.72;100.00
29379;BME280;16362;47.202;15.258;2024-02-21T03:47:37;96923.75;;;1.69;100.00
29379;BME280;16362;47.202;15.258;2024-02-21T03:50:05;96929.00;;;1.69;100.00
29379;BME280;16362;47.202;15.258;2024-02-21T03:52:32;96925.44;;;1.70;100.00
29379;BME280;16362;47.202;15.258;2024-02-21T03:55:01;96921.31;;;1.66;100.00
29379;BME280;16362;47.202;15.258;2024-02-21T03:57:28;96925.84;;;1.64;100.00
29379;BME280;16362;47.202;15.258;2024-02-21T03:59:57;96928.78;;;1.59;100.00
29379;BME280;16362;47.202;15.258;2024-02-21T04:02:23;96929.09;;;1.55;100.00
29379;BME280;16362;47.202;15.258;2024-02-21T04:04:50;96934.53;;;1.51;100.00
29379;BME280;16362;47.202;15.258;2024-02-21T04:07:17;96930.25;;;1.50;100.00
29379;BME280;16362;47.202;15.258;2024-02-21T04:09:44;96937.59;;;1.45;100.00
29379;BME280;16362;47.202;15.258;2024-02-21T04:12:13;96945.50;;;1.45;100.00
29379;BME280;16362;47.202;15.258;2024-02-21T04:14:39;96938.53;;;1.44;100.00
29379;BME280;16362;47.202;15.258;2024-02-21T04:17:09;96938.31;;;1.47;100.00
29379;BME280;16362;47.202;15.258;2024-02-21T04:19:36;96929.59;;;1.47;100.00
29379;BME280;16362;47.202;15.258;2024-02-21T04:22:03;96922.34;;;1.50;100.00
29379;BME280;16362;47.202;15.258;2024-02-21T04:24:30;96933.81;;;1.49;100.00
29379;BME280;16362;47.202;15.258;2024-02-21T04:26:58;96924.56;;;1.44;100.00
29379;BME280;16362;47.202;15.258;2024-02-21T04:29:25;96921.16;;;1.42;100.00
29379;BME280;16362;47.202;15.258;2024-02-21T04:31:54;96932.34;;;1.45;100.00
29379;BME280;16362;47.202;15.258;2024-02-21T04:34:23;96928.56;;;1.49;100.00
29379;BME280;16362;47.202;15.258;2024-02-21T04:36:50;96926.88;;;1.48;100.00
29379;BME280;16362;47.202;15.258;2024-02-21T04:39:17;96920.13;;;1.44;100.00
29379;BME280;16362;47.202;15.258;2024-02-21T04:41:44;96930.75;;;1.43;100.00
29379;BME280;16362;47.202;15.258;2024-02-21T04:44:11;96918.84;;;1.37;100.00
29379;BME280;16362;47.202;15.258;2024-02-21T04:46:42;96913.38;;;1.40;100.00
29379;BME280;16362;47.202;15.258;2024-02-21T04:49:10;96914.63;;;1.34;100.00
29379;BME280;16362;47.202;15.258;2024-02-21T04:51:40;96914.84;;;1.31;100.00
29379;BME280;16362;47.202;15.258;2024-02-21T04:54:10;96913.25;;;1.29;100.00
29379;BME280;16362;47.202;15.258;2024-02-21T04:56:36;96921.16;;;1.29;100.00
29379;BME280;16362;47.202;15.258;2024-02-21T04:59:03;96923.13;;;1.25;100.00
29379;BME280;16362;47.202;15.258;2024-02-21T05:01:30;96922.81;;;1.30;100.00
29379;BME280;16362;47.202;15.258;2024-02-21T05:03:57;96926.50;;;1.27;100.00
29379;BME280;16362;47.202;15.258;2024-02-21T05:06:25;96924.28;;;1.21;100.00
29379;BME280;16362;47.202;15.258;2024-02-21T05:08:52;96930.38;;;1.22;100.00
29379;BME280;16362;47.202;15.258;2024-02-21T05:11:19;96922.78;;;1.17;100.00
29379;BME280;16362;47.202;15.258;2024-02-21T05:13:46;96926.47;;;1.14;100.00
29379;BME280;16362;47.202;15.258;2024-02-21T05:16:12;96928.16;;;1.15;100.00
29379;BME280;16362;47.202;15.258;2024-02-21T05:18:40;96920.25;;;1.15;100.00
29379;BME280;16362;47.202;15.258;2024-02-21T05:21:09;96916.31;;;1.08;100.00
29379;BME280;16362;47.202;15.258;2024-02-21T05:23:37;96922.72;;;1.04;100.00
29379;BME280;16362;47.202;15.258;2024-02-21T05:26:06;96921.06;;;1.03;100.00
29379;BME280;16362;47.202;15.258;2024-02-21T05:28:33;96919.56;;;0.99;100.00
29379;BME280;16362;47.202;15.258;2024-02-21T05:31:01;96923.34;;;0.95;100.00
29379;BME280;16362;47.202;15.258;2024-02-21T05:33:30;96914.69;;;0.93;100.00
29379;BME280;16362;47.202;15.258;2024-02-21T05:35:58;96924.19;;;0.95;100.00
29379;BME280;16362;47.202;15.258;2024-02-21T05:38:25;96918.16;;;0.93;100.00
29379;BME280;16362;47.202;15.258;2024-02-21T05:40:56;96913.00;;;0.92;100.00
29379;BME280;16362;47.202;15.258;2024-02-21T05:43:23;96916.59;;;0.91;100.00
29379;BME280;16362;47.202;15.258;2024-02-21T05:45:50;96908.88;;;0.88;100.00
29379;BME280;16362;47.202;15.258;2024-02-21T05:48:17;96909.81;;;0.87;100.00
29379;BME280;16362;47.202;15.258;2024-02-21T05:50:45;96907.13;;;0.88;100.00
29379;BME280;16362;47.202;15.258;2024-02-21T05:53:13;96913.78;;;0.79;100.00
29379;BME280;16362;47.202;15.258;2024-02-21T05:55:40;96903.59;;;0.75;100.00
29379;BME280;16362;47.202;15.258;2024-02-21T05:58:10;96911.72;;;0.84;100.00
29379;BME280;16362;47.202;15.258;2024-02-21T06:00:40;96903.50;;;0.76;100.00
29379;BME280;16362;47.202;15.258;2024-02-21T06:03:10;96910.81;;;0.71;100.00
29379;BME280;16362;47.202;15.258;2024-02-21T06:05:40;96908.09;;;0.73;100.00
29379;BME280;16362;47.202;15.258;2024-02-21T06:08:08;96899.66;;;0.67;100.00
29379;BME280;16362;47.202;15.258;2024-02-21T06:10:36;96895.81;;;0.73;100.00
29379;BME280;16362;47.202;15.258;2024-02-21T06:13:03;96900.00;;;0.76;100.00
29379;BME280;16362;47.202;15.258;2024-02-21T06:15:30;96900.66;;;0.79;100.00
29379;BME280;16362;47.202;15.258;2024-02-21T06:17:57;96891.44;;;0.87;100.00
29379;BME280;16362;47.202;15.258;2024-02-21T06:20:27;96889.88;;;0.84;100.00
29379;BME280;16362;47.202;15.258;2024-02-21T06:22:54;96898.47;;;0.86;100.00
29379;BME280;16362;47.202;15.258;2024-02-21T06:25:21;96899.75;;;0.93;100.00
29379;BME280;16362;47.202;15.258;2024-02-21T06:27:47;96897.25;;;0.92;100.00
29379;BME280;16362;47.202;15.258;2024-02-21T06:30:14;96899.38;;;0.99;100.00
29379;BME280;16362;47.202;15.258;2024-02-21T06:32:41;96896.66;;;1.01;100.00
29379;BME280;16362;47.202;15.258;2024-02-21T06:35:08;96896.53;;;1.03;100.00
29379;BME280;16362;47.202;15.258;2024-02-21T06:37:34;96906.56;;;1.10;100.00
29379;BME280;16362;47.202;15.258;2024-02-21T06:40:01;96908.06;;;1.14;100.00
29379;BME280;16362;47.202;15.258;2024-02-21T06:42:30;96909.75;;;1.15;100.00
29379;BME280;16362;47.202;15.258;2024-02-21T06:44:57;96917.53;;;1.17;100.00
29379;BME280;16362;47.202;15.258;2024-02-21T06:47:23;96919.94;;;1.20;100.00
29379;BME280;16362;47.202;15.258;2024-02-21T06:49:51;96923.78;;;1.29;100.00
29379;BME280;16362;47.202;15.258;2024-02-21T06:52:18;96918.00;;;1.37;100.00
29379;BME280;16362;47.202;15.258;2024-02-21T06:54:47;96915.06;;;1.41;100.00
29379;BME280;16362;47.202;15.258;2024-02-21T06:57:15;96913.16;;;1.43;100.00
29379;BME280;16362;47.202;15.258;2024-02-21T06:59:42;96911.28;;;1.45;100.00
29379;BME280;16362;47.202;15.258;2024-02-21T07:02:09;96908.22;;;1.51;100.00
29379;BME280;16362;47.202;15.258;2024-02-21T07:04:36;96922.25;;;1.52;100.00
29379;BME280;16362;47.202;15.258;2024-02-21T07:07:08;96923.63;;;1.58;100.00
29379;BME280;16362;47.202;15.258;2024-02-21T07:09:39;96922.25;;;1.65;100.00
29379;BME280;16362;47.202;15.258;2024-02-21T07:12:06;96918.03;;;1.62;100.00
29379;BME280;16362;47.202;15.258;2024-02-21T07:14:33;96927.84;;;1.60;100.00
29379;BME280;16362;47.202;15.258;2024-02-21T07:17:11;96926.25;;;1.58;100.00
29379;BME280;16362;47.202;15.258;2024-02-21T07:19:38;96929.22;;;1.66;100.00
29379;BME280;16362;47.202;15.258;2024-02-21T07:22:05;96912.16;;;1.72;100.00
29379;BME280;16362;47.202;15.258;2024-02-21T07:24:32;96921.03;;;1.83;100.00
29379;BME280;16362;47.202;15.258;2024-02-21T07:27:00;96911.56;;;1.94;100.00
29379;BME280;16362;47.202;15.258;2024-02-21T07:29:31;96917.25;;;2.00;100.00
29379;BME280;16362;47.202;15.258;2024-02-21T07:32:01;96909.03;;;2.05;100.00
29379;BME280;16362;47.202;15.258;2024-02-21T07:34:30;96910.94;;;2.03;100.00
29379;BME280;16362;47.202;15.258;2024-02-21T07:37:00;96915.44;;;2.27;100.00
29379;BME280;16362;47.202;15.258;2024-02-21T07:39:30;96904.75;;;2.54;100.00
29379;BME280;16362;47.202;15.258;2024-02-21T07:41:57;96899.19;;;3.07;100.00
29379;BME280;16362;47.202;15.258;2024-02-21T07:44:24;96891.34;;;3.43;100.00
29379;BME280;16362;47.202;15.258;2024-02-21T07:46:52;96891.72;;;3.49;100.00
29379;BME280;16362;47.202;15.258;2024-02-21T07:49:19;96882.09;;;3.48;100.00
29379;BME280;16362;47.202;15.258;2024-02-21T07:51:47;96887.41;;;3.60;100.00
29379;BME280;16362;47.202;15.258;2024-02-21T07:54:14;96883.25;;;3.68;100.00
29379;BME280;16362;47.202;15.258;2024-02-21T07:56:44;96881.69;;;3.77;100.00
29379;BME280;16362;47.202;15.258;2024-02-21T07:59:12;96883.88;;;3.83;100.00
29379;BME280;16362;47.202;15.258;2024-02-21T08:01:40;96879.41;;;3.84;100.00
29379;BME280;16362;47.202;15.258;2024-02-21T08:04:07;96868.03;;;3.83;100.00
29379;BME280;16362;47.202;15.258;2024-02-21T08:06:34;96870.91;;;3.92;100.00
29379;BME280;16362;47.202;15.258;2024-02-21T08:09:01;96868.91;;;4.07;100.00
29379;BME280;16362;47.202;15.258;2024-02-21T08:11:29;96862.06;;;4.27;100.00
29379;BME280;16362;47.202;15.258;2024-02-21T08:13:56;96864.09;;;4.46;100.00
29379;BME280;16362;47.202;15.258;2024-02-21T08:16:23;96860.69;;;4.78;100.00
29379;BME280;16362;47.202;15.258;2024-02-21T08:18:50;96852.97;;;5.18;100.00
29379;BME280;16362;47.202;15.258;2024-02-21T08:21:17;96842.22;;;5.52;97.64
29379;BME280;16362;47.202;15.258;2024-02-21T08:23:44;96842.16;;;5.85;96.34
29379;BME280;16362;47.202;15.258;2024-02-21T08:26:11;96841.47;;;6.14;93.57
29379;BME280;16362;47.202;15.258;2024-02-21T08:28:38;96828.44;;;6.32;88.39
29379;BME280;16362;47.202;15.258;2024-02-21T08:31:05;96829.19;;;6.44;88.26
29379;BME280;16362;47.202;15.258;2024-02-21T08:33:31;96830.06;;;6.64;87.83
29379;BME280;16362;47.202;15.258;2024-02-21T08:35:58;96832.88;;;6.62;87.32
29379;BME280;16362;47.202;15.258;2024-02-21T08:38:25;96832.28;;;6.49;81.83
29379;BME280;16362;47.202;15.258;2024-02-21T08:40:52;96826.72;;;6.21;81.73
29379;BME280;16362;47.202;15.258;2024-02-21T08:43:20;96825.28;;;6.07;84.72
29379;BME280;16362;47.202;15.258;2024-02-21T08:45:48;96835.56;;;6.00;87.01
29379;BME280;16362;47.202;15.258;2024-02-21T08:48:15;96844.25;;;5.91;90.44
29379;BME280;16362;47.202;15.258;2024-02-21T08:50:42;96832.06;;;5.79;91.10
29379;BME280;16362;47.202;15.258;2024-02-21T08:53:10;96827.31;;;5.72;91.20
29379;BME280;16362;47.202;15.258;2024-02-21T08:55:38;96824.25;;;5.77;88.92
29379;BME280;16362;47.202;15.258;2024-02-21T08:58:07;96828.19;;;5.83;89.13
29379;BME280;16362;47.202;15.258;2024-02-21T09:00:34;96818.69;;;5.80;87.58
29379;BME280;16362;47.202;15.258;2024-02-21T09:03:05;96817.00;;;6.00;88.58
29379;BME280;16362;47.202;15.258;2024-02-21T09:05:34;96813.00;;;6.06;90.75
29379;BME280;16362;47.202;15.258;2024-02-21T09:08:02;96813.38;;;6.32;84.69
29379;BME280;16362;47.202;15.258;2024-02-21T09:10:35;96803.56;;;6.64;86.65
29379;BME280;16362;47.202;15.258;2024-02-21T09:13:07;96793.69;;;7.05;81.63
29379;BME280;16362;47.202;15.258;2024-02-21T09:15:40;96786.84;;;7.41;79.67
29379;BME280;16362;47.202;15.258;2024-02-21T09:18:15;96782.00;;;7.74;73.25
29379;BME280;16362;47.202;15.258;2024-02-21T09:20:42;96786.00;;;7.88;79.19
29379;BME280;16362;47.202;15.258;2024-02-21T09:23:11;96777.38;;;8.14;75.52
29379;BME280;16362;47.202;15.258;2024-02-21T09:26:01;96778.69;;;8.38;74.22
29379;BME280;16362;47.202;15.258;2024-02-21T09:28:38;96780.19;;;8.50;73.31
29379;BME280;16362;47.202;15.258;2024-02-21T09:31:06;96776.31;;;8.81;69.86
29379;BME280;16362;47.202;15.258;2024-02-21T09:33:34;96767.34;;;9.00;68.97
29379;BME280;16362;47.202;15.258;2024-02-21T09:36:10;96769.50;;;9.14;65.92
29379;BME280;16362;47.202;15.258;2024-02-21T09:38:44;96769.94;;;9.27;64.43
29379;BME280;16362;47.202;15.258;2024-02-21T09:41:18;96764.22;;;9.40;63.43
29379;BME280;16362;47.202;15.258;2024-02-21T09:43:57;96756.91;;;9.42;60.44
29379;BME280;16362;47.202;15.258;2024-02-21T09:51:53;96756.75;;;9.97;57.27
29379;BME280;16362;47.202;15.258;2024-02-21T09:54:21;96751.19;;;10.16;58.89
29379;BME280;16362;47.202;15.258;2024-02-21T09:56:48;96751.38;;;10.23;54.58
29379;BME280;16362;47.202;15.258;2024-02-21T09:59:16;96732.34;;;10.18;56.05
29379;BME280;16362;47.202;15.258;2024-02-21T10:01:43;96740.88;;;10.29;55.13
29379;BME280;16362;47.202;15.258;2024-02-21T10:04:17;96748.06;;;10.29;55.30
29379;BME280;16362;47.202;15.258;2024-02-21T10:06:46;96747.00;;;10.48;53.10
29379;BME280;16362;47.202;15.258;2024-02-21T10:09:23;96729.22;;;10.82;51.12
29379;BME280;16362;47.202;15.258;2024-02-21T10:11:50;96728.72;;;10.78;50.83
29379;BME280;16362;47.202;15.258;2024-02-21T10:14:18;96725.69;;;10.73;50.81
29379;BME280;16362;47.202;15.258;2024-02-21T10:16:47;96721.22;;;10.73;51.19
29379;BME280;16362;47.202;15.258;2024-02-21T10:19:19;96720.88;;;10.85;49.92
29379;BME280;16362;47.202;15.258;2024-02-21T10:22:07;96711.06;;;11.02;47.94
29379;BME280;16362;47.202;15.258;2024-02-21T10:24:36;96719.56;;;11.38;45.12
29379;BME280;16362;47.202;15.258;2024-02-21T10:27:06;96718.06;;;11.19;47.32
29379;BME280;16362;47.202;15.258;2024-02-21T10:29:40;96715.22;;;11.21;43.69
29379;BME280;16362;47.202;15.258;2024-02-21T10:32:11;96707.69;;;10.83;45.86
29379;BME280;16362;47.202;15.258;2024-02-21T10:34:44;96701.97;;;10.53;45.88
29379;BME280;16362;47.202;15.258;2024-02-21T10:37:12;96705.81;;;10.51;46.50
29379;BME280;16362;47.202;15.258;2024-02-21T10:39:51;96697.53;;;10.27;46.55
29379;BME280;16362;47.202;15.258;2024-02-21T10:42:21;96700.16;;;10.11;48.44
29379;BME280;16362;47.202;15.258;2024-02-21T10:44:51;96689.97;;;10.06;47.89
29379;BME280;16362;47.202;15.258;2024-02-21T10:47:22;96689.81;;;9.73;50.34
29379;BME280;16362;47.202;15.258;2024-02-21T10:50:03;96678.66;;;9.78;52.27
29379;BME280;16362;47.202;15.258;2024-02-21T10:52:57;96679.03;;;9.83;51.85
29379;BME280;16362;47.202;15.258;2024-02-21T10:55:41;96681.47;;;10.03;50.68
29379;BME280;16362;47.202;15.258;2024-02-21T10:58:20;96662.03;;;10.27;49.13
29379;BME280;16362;47.202;15.258;2024-02-21T11:00:49;96674.03;;;10.23;49.86
29379;BME280;16362;47.202;15.258;2024-02-21T11:03:22;96669.31;;;10.08;50.64
29379;BME280;16362;47.202;15.258;2024-02-21T11:05:51;96654.81;;;10.11;49.41
29379;BME280;16362;47.202;15.258;2024-02-21T11:08:20;96652.75;;;9.88;49.62
29379;BME280;16362;47.202;15.258;2024-02-21T11:10:47;96647.34;;;9.72;52.18
29379;BME280;16362;47.202;15.258;2024-02-21T11:13:15;96646.47;;;9.63;54.23
29379;BME280;16362;47.202;15.258;2024-02-21T11:15:42;96645.91;;;9.51;59.85
29379;BME280;16362;47.202;15.258;2024-02-21T11:18:09;96641.38;;;9.43;60.70
29379;BME280;16362;47.202;15.258;2024-02-21T11:20:38;96638.63;;;9.27;61.66
29379;BME280;16362;47.202;15.258;2024-02-21T11:23:06;96622.47;;;9.29;59.81
29379;BME280;16362;47.202;15.258;2024-02-21T11:25:36;96605.19;;;9.33;63.67
29379;BME280;16362;47.202;15.258;2024-02-21T11:28:04;96604.00;;;9.27;59.90
29379;BME280;16362;47.202;15.258;2024-02-21T11:30:32;96600.69;;;9.33;56.26
29379;BME280;16362;47.202;15.258;2024-02-21T11:33:03;96590.59;;;9.45;53.12
29379;BME280;16362;47.202;15.258;2024-02-21T11:35:34;96598.50;;;9.29;53.74
29379;BME280;16362;47.202;15.258;2024-02-21T11:38:12;96595.16;;;9.26;54.44
29379;BME280;16362;47.202;15.258;2024-02-21T11:40:45;96588.94;;;9.52;51.46
29379;BME280;16362;47.202;15.258;2024-02-21T11:43:12;96593.31;;;9.61;50.84
29379;BME280;16362;47.202;15.258;2024-02-21T11:45:39;96574.69;;;9.70;49.81
29379;BME280;16362;47.202;15.258;2024-02-21T11:48:06;96580.00;;;9.61;51.20
29379;BME280;16362;47.202;15.258;2024-02-21T11:50:34;96580.78;;;9.54;51.33
29379;BME280;16362;47.202;15.258;2024-02-21T11:53:02;96576.69;;;9.59;50.45
29379;BME280;16362;47.202;15.258;2024-02-21T11:55:29;96575.84;;;9.67;49.80
29379;BME280;16362;47.202;15.258;2024-02-21T11:57:56;96563.22;;;9.69;50.70
29379;BME280;16362;47.202;15.258;2024-02-21T12:00:23;96569.91;;;9.73;49.84
29379;BME280;16362;47.202;15.258;2024-02-21T12:02:54;96578.19;;;9.62;52.39
29379;BME280;16362;47.202;15.258;2024-02-21T12:05:22;96568.50;;;9.53;52.25
29379;BME280;16362;47.202;15.258;2024-02-21T12:07:49;96569.06;;;9.73;50.24
29379;BME280;16362;47.202;15.258;2024-02-21T12:10:16;96561.28;;;9.88;48.72
29379;BME280;16362;47.202;15.258;2024-02-21T12:12:44;96555.44;;;9.92;48.65
29379;BME280;16362;47.202;15.258;2024-02-21T12:15:18;96540.75;;;9.80;49.15
29379;BME280;16362;47.202;15.258;2024-02-21T12:17:46;96543.25;;;9.82;52.10
29379;BME280;16362;47.202;15.258;2024-02-21T12:20:14;96543.00;;;10.09;49.41
29379;BME280;16362;47.202;15.258;2024-02-21T12:22:49;96536.53;;;10.37;46.69
29379;BME280;16362;47.202;15.258;2024-02-21T12:25:22;96527.00;;;10.26;47.91
29379;BME280;16362;47.202;15.258;2024-02-21T12:27:55;96523.53;;;10.42;47.30
29379;BME280;16362;47.202;15.258;2024-02-21T12:30:25;96523.84;;;10.39;46.97
29379;BME280;16362;47.202;15.258;2024-02-21T12:32:54;96529.84;;;10.24;48.30
29379;BME280;16362;47.202;15.258;2024-02-21T12:35:21;96516.63;;;10.06;50.13
29379;BME280;16362;47.202;15.258;2024-02-21T12:37:48;96515.47;;;10.01;49.13
29379;BME280;16362;47.202;15.258;2024-02-21T12:40:20;96518.47;;;9.98;49.76
29379;BME280;16362;47.202;15.258;2024-02-21T12:42:49;96511.81;;;9.93;50.93
29379;BME280;16362;47.202;15.258;2024-02-21T12:45:16;96505.47;;;9.94;52.25
29379;BME280;16362;47.202;15.258;2024-02-21T12:47:49;96508.00;;;10.13;49.15
29379;BME280;16362;47.202;15.258;2024-02-21T12:50:24;96506.47;;;10.26;48.29
29379;BME280;16362;47.202;15.258;2024-02-21T12:52:53;96497.16;;;10.31;47.67
29379;BME280;16362;47.202;15.258;2024-02-21T12:55:21;96493.31;;;10.33;47.35
29379;BME280;16362;47.202;15.258;2024-02-21T12:57:48;96492.34;;;10.42;47.72
29379;BME280;16362;47.202;15.258;2024-02-21T13:00:17;96480.84;;;10.34;47.00
29379;BME280;16362;47.202;15.258;2024-02-21T13:02:57;96492.50;;;10.49;49.26
29379;BME280;16362;47.202;15.258;2024-02-21T13:05:24;96487.47;;;10.71;45.21